Time;durP1;ratioP1;P1;durP2;ratioP2;P2;SDS_P1;SDS_P2;PMS_P1;PMS_P2;Temp;Humidity;BMP_temperature;BMP_pressure;BME280_temperature;BME280_humidity;BME280_pressure;Samples;Min_cycle;Max_cycle;Signal;HPM_P1;HPM_P2
2022/05/20 00:00:06;;;;;;;30.00;27.35;;;;;;;;;;6523694;22;20002;-65
2022/05/20 00:02:37;;;;;;;35.20;31.52;;;;;;;;;;6523095;22;20006;-64
2022/05/20 00:05:07;;;;;;;32.47;29.45;;;;;;;;;;6522510;22;20426;-65
2022/05/20 00:07:39;;;;;;;30.13;27.05;;;;;;;;;;6523368;22;20000;-64
2022/05/20 00:10:11;;;;;;;29.20;26.35;;;;;;;;;;6523041;22;20002;-64
2022/05/20 00:12:41;;;;;;;30.13;27.25;;;;;;;;;;6523047;22;20003;-65
2022/05/20 00:15:20;;;;;;;33.17;29.95;;;;;;;;;;6522474;22;20591;-65
2022/05/20 00:17:50;;;;;;;30.65;28.30;;;;;;;;;;6523540;22;20347;-65
2022/05/20 00:20:21;;;;;;;31.80;29.23;;;;;;;;;;6522946;22;19999;-64
2022/05/20 00:22:51;;;;;;;31.98;29.08;;;;;;;;;;6522999;22;20422;-65
2022/05/20 00:28:12;;;;;;;31.33;28.63;;;;;;;;;;6524212;22;20071;-64
2022/05/20 00:30:42;;;;;;;33.60;30.23;;;;;;;;;;6522924;22;19995;-65
2022/05/20 00:33:13;;;;;;;31.00;28.08;;;;;;;;;;6521486;22;19999;-65
2022/05/20 00:35:45;;;;;;;31.75;28.48;;;;;;;;;;6522233;22;20006;-65
2022/05/20 00:38:16;;;;;;;35.78;32.47;;;;;;;;;;6524227;22;20005;-64
2022/05/20 00:40:47;;;;;;;37.08;33.40;;;;;;;;;;6522979;22;20460;-65
2022/05/20 00:43:27;;;;;;;35.78;32.55;;;;;;;;;;6522695;22;19995;-65
2022/05/20 00:45:59;;;;;;;35.50;32.50;;;;;;;;;;6522300;22;20007;-65
2022/05/20 00:48:29;;;;;;;35.83;32.97;;;;;;;;;;6521308;22;20452;-65
2022/05/20 00:51:06;;;;;;;35.58;32.17;;;;;;;;;;6522657;22;20020;-64
2022/05/20 00:53:39;;;;;;;37.58;34.25;;;;;;;;;;6522240;22;20481;-64
2022/05/20 00:56:11;;;;;;;38.90;35.33;;;;;;;;;;6522216;22;20002;-63
2022/05/20 00:58:42;;;;;;;41.13;36.40;;;;;;;;;;6522405;22;20433;-64
2022/05/20 01:01:12;;;;;;;41.33;37.70;;;;;;;;;;6522307;22;20041;-64
2022/05/20 01:03:43;;;;;;;40.33;36.22;;;;;;;;;;6522094;22;20007;-64
2022/05/20 01:06:13;;;;;;;47.72;43.50;;;;;;;;;;6522513;22;20064;-64
2022/05/20 01:08:44;;;;;;;46.30;42.25;;;;;;;;;;6522137;22;19995;-64
2022/05/20 01:11:14;;;;;;;46.95;42.30;;;;;;;;;;6524320;22;20031;-64
2022/05/20 01:13:47;;;;;;;43.42;39.50;;;;;;;;;;6521844;22;19995;-66
2022/05/20 01:16:18;;;;;;;43.88;39.50;;;;;;;;;;6522180;22;20056;-64
2022/05/20 01:18:53;;;;;;;43.75;39.33;;;;;;;;;;6521620;22;19999;-64
2022/05/20 01:21:23;;;;;;;40.60;37.17;;;;;;;;;;6521586;22;20015;-63
2022/05/20 01:24:01;;;;;;;43.25;39.33;;;;;;;;;;6522180;22;20494;-64
2022/05/20 01:26:31;;;;;;;41.45;37.22;;;;;;;;;;6523742;22;20009;-64
2022/05/20 01:29:01;;;;;;;39.75;36.22;;;;;;;;;;6521916;22;19999;-64
2022/05/20 01:31:32;;;;;;;43.00;39.22;;;;;;;;;;6521842;22;20565;-65
2022/05/20 01:34:02;;;;;;;42.38;38.60;;;;;;;;;;6521577;22;20003;-66
2022/05/20 01:36:32;;;;;;;40.50;36.60;;;;;;;;;;6521963;22;20337;-66
2022/05/20 01:39:03;;;;;;;46.17;41.53;;;;;;;;;;6521284;22;20003;-65
2022/05/20 01:41:54;;;;;;;43.60;37.65;;;;;;;;;;6521584;22;20012;-63
2022/05/20 01:44:43;;;;;;;46.72;41.85;;;;;;;;;;6546797;22;20082;-64
2022/05/20 01:47:13;;;;;;;42.43;38.33;;;;;;;;;;6522097;22;20114;-65
2022/05/20 01:50:10;;;;;;;44.38;39.72;;;;;;;;;;6521701;22;20437;-65
2022/05/20 01:52:44;;;;;;;42.67;39.05;;;;;;;;;;6541987;22;20006;-65
2022/05/20 01:55:19;;;;;;;43.13;39.42;;;;;;;;;;6521826;22;20426;-66
2022/05/20 01:58:02;;;;;;;48.67;43.90;;;;;;;;;;6521907;22;20091;-65
2022/05/20 02:00:33;;;;;;;49.17;44.35;;;;;;;;;;6521161;22;20120;-64
2022/05/20 02:03:04;;;;;;;43.50;39.38;;;;;;;;;;6521687;22;20080;-65
2022/05/20 02:05:48;;;;;;;42.10;38.65;;;;;;;;;;6523285;22;19999;-64
2022/05/20 02:08:19;;;;;;;48.03;42.97;;;;;;;;;;6522007;22;20038;-64
2022/05/20 02:11:09;;;;;;;42.97;38.67;;;;;;;;;;6521910;22;19996;-65
2022/05/20 02:13:42;;;;;;;48.42;44.28;;;;;;;;;;6484846;22;19995;-65
2022/05/20 02:16:15;;;;;;;45.95;39.90;;;;;;;;;;6521586;22;20086;-64
2022/05/20 02:18:49;;;;;;;44.10;39.78;;;;;;;;;;6523690;22;19999;-65
2022/05/20 02:21:21;;;;;;;44.58;39.75;;;;;;;;;;6521603;22;20010;-65
2022/05/20 02:23:55;;;;;;;48.35;43.83;;;;;;;;;;6521090;22;19999;-66
2022/05/20 02:26:28;;;;;;;45.53;41.33;;;;;;;;;;6521562;22;20006;-65
2022/05/20 02:29:00;;;;;;;45.53;41.20;;;;;;;;;;6521345;22;20325;-65
2022/05/20 02:31:42;;;;;;;47.38;42.88;;;;;;;;;;6521266;22;19995;-65
2022/05/20 02:34:12;;;;;;;53.95;48.55;;;;;;;;;;6521000;22;20323;-65
2022/05/20 02:36:42;;;;;;;49.13;44.70;;;;;;;;;;6521867;22;20011;-65
2022/05/20 02:39:16;;;;;;;50.08;45.13;;;;;;;;;;6521679;22;20048;-64
2022/05/20 02:41:47;;;;;;;50.65;46.03;;;;;;;;;;6521755;22;20031;-66
2022/05/20 02:44:17;;;;;;;50.83;46.58;;;;;;;;;;6520794;22;20004;-65
2022/05/20 02:46:47;;;;;;;49.28;44.45;;;;;;;;;;6521929;22;20318;-66
2022/05/20 02:49:18;;;;;;;48.53;43.85;;;;;;;;;;6521594;22;19996;-65
2022/05/20 02:51:48;;;;;;;49.72;44.97;;;;;;;;;;6522723;22;20048;-65
2022/05/20 02:54:18;;;;;;;56.25;50.53;;;;;;;;;;6522940;22;19991;-66
2022/05/20 02:56:49;;;;;;;47.08;43.00;;;;;;;;;;6521658;22;20056;-65
2022/05/20 03:04:57;;;;;;;50.83;45.80;;;;;;;;;;6524612;22;20068;-66
2022/05/20 03:07:27;;;;;;;47.53;43.08;;;;;;;;;;6523634;22;20374;-64
2022/05/20 03:09:58;;;;;;;52.97;47.97;;;;;;;;;;6523356;22;20022;-64
2022/05/20 03:12:29;;;;;;;47.67;43.33;;;;;;;;;;6523411;22;20002;-64
2022/05/20 03:14:59;;;;;;;48.22;43.75;;;;;;;;;;6522140;22;20000;-64
2022/05/20 03:17:30;;;;;;;48.45;43.47;;;;;;;;;;6522592;22;19999;-64
2022/05/20 03:20:00;;;;;;;46.88;43.05;;;;;;;;;;6522373;22;20003;-65
2022/05/20 03:22:32;;;;;;;46.28;41.28;;;;;;;;;;6523777;22;20074;-64
2022/05/20 03:25:04;;;;;;;44.72;40.42;;;;;;;;;;6522884;22;19995;-65
2022/05/20 03:27:34;;;;;;;47.35;42.47;;;;;;;;;;6523133;22;20000;-65
2022/05/20 03:30:06;;;;;;;46.67;42.40;;;;;;;;;;6525045;22;20015;-66
2022/05/20 03:32:37;;;;;;;47.38;43.28;;;;;;;;;;6523085;22;20003;-65
2022/05/20 03:35:07;;;;;;;51.65;46.40;;;;;;;;;;6548869;22;20376;-65
2022/05/20 03:37:37;;;;;;;50.55;45.28;;;;;;;;;;6523236;22;20022;-65
2022/05/20 03:40:08;;;;;;;51.40;46.38;;;;;;;;;;6523317;22;20019;-65
2022/05/20 03:42:38;;;;;;;51.88;46.92;;;;;;;;;;6523460;22;19991;-64
2022/05/20 03:45:10;;;;;;;49.33;43.78;;;;;;;;;;6522767;22;19999;-65
2022/05/20 03:47:40;;;;;;;46.83;41.95;;;;;;;;;;6522979;22;20074;-65
2022/05/20 03:50:10;;;;;;;46.10;41.58;;;;;;;;;;6522905;22;20419;-66
2022/05/20 03:52:41;;;;;;;45.05;41.35;;;;;;;;;;6522498;22;20342;-65
2022/05/20 03:55:11;;;;;;;43.38;39.60;;;;;;;;;;6521682;22;19999;-65
2022/05/20 03:57:41;;;;;;;47.08;42.38;;;;;;;;;;6523037;22;19999;-65
2022/05/20 04:00:12;;;;;;;43.08;39.10;;;;;;;;;;6523199;22;20011;-65
2022/05/20 04:02:42;;;;;;;47.10;42.72;;;;;;;;;;6523472;22;20023;-65
2022/05/20 04:05:13;;;;;;;47.58;43.00;;;;;;;;;;6522322;22;20003;-65
2022/05/20 04:07:43;;;;;;;48.60;44.28;;;;;;;;;;6523506;22;20041;-65
2022/05/20 04:10:14;;;;;;;51.75;46.88;;;;;;;;;;6522685;22;20212;-66
2022/05/20 04:12:44;;;;;;;48.97;44.53;;;;;;;;;;6522814;22;20018;-64
2022/05/20 04:15:15;;;;;;;52.60;43.65;;;;;;;;;;6521851;22;20387;-64
2022/05/20 04:17:45;;;;;;;53.03;47.92;;;;;;;;;;6522961;22;20009;-64
2022/05/20 04:20:15;;;;;;;53.55;48.67;;;;;;;;;;6524506;22;20498;-65
2022/05/20 04:22:45;;;;;;;53.58;48.15;;;;;;;;;;6522894;22;20018;-65
2022/05/20 04:25:16;;;;;;;52.40;46.15;;;;;;;;;;6524042;22;20002;-65
2022/05/20 04:27:46;;;;;;;60.05;54.33;;;;;;;;;;6523014;22;20056;-68
2022/05/20 04:30:19;;;;;;;56.70;50.83;;;;;;;;;;6524494;22;20029;-65
2022/05/20 04:32:50;;;;;;;55.63;49.95;;;;;;;;;;6520586;22;20048;-65
2022/05/20 04:35:20;;;;;;;57.67;52.20;;;;;;;;;;6521134;22;20000;-64
2022/05/20 04:37:50;;;;;;;59.13;51.65;;;;;;;;;;6521178;22;20003;-64
2022/05/20 04:40:21;;;;;;;54.85;49.25;;;;;;;;;;6522518;22;20085;-64
2022/05/20 04:48:29;;;;;;;59.78;53.97;;;;;;;;;;6523707;22;20006;-64
2022/05/20 04:51:00;;;;;;;49.00;43.92;;;;;;;;;;6522820;22;20147;-66
2022/05/20 04:56:19;;;;;;;50.90;45.73;;;;;;;;;;6523787;22;20007;-64
2022/05/20 04:58:49;;;;;;;48.75;44.00;;;;;;;;;;6522310;22;19999;-65
2022/05/20 05:01:22;;;;;;;49.05;44.05;;;;;;;;;;6515380;22;19999;-91
2022/05/20 05:03:52;;;;;;;47.92;43.30;;;;;;;;;;6470645;22;20007;-93
2022/05/20 05:06:23;;;;;;;50.63;45.78;;;;;;;;;;6471219;22;20003;-93
2022/05/20 05:08:53;;;;;;;46.80;42.05;;;;;;;;;;6499842;22;20159;-93
2022/05/20 05:11:27;;;;;;;46.08;41.35;;;;;;;;;;6503666;22;20424;-93
2022/05/20 05:13:57;;;;;;;50.95;42.70;;;;;;;;;;6476150;22;19995;-92
2022/05/20 05:16:28;;;;;;;45.30;40.63;;;;;;;;;;6506342;22;19996;-94
2022/05/20 05:19:00;;;;;;;49.15;43.88;;;;;;;;;;6477181;22;20000;-91
2022/05/20 05:21:31;;;;;;;50.67;45.47;;;;;;;;;;6504936;22;20057;-92
2022/05/20 05:24:01;;;;;;;48.42;43.33;;;;;;;;;;6504452;22;19999;-93
2022/05/20 05:26:35;;;;;;;45.50;40.78;;;;;;;;;;6482025;22;20081;-93
2022/05/20 05:29:06;;;;;;;49.85;44.88;;;;;;;;;;6511862;22;19999;-94
2022/05/20 05:31:36;;;;;;;47.50;42.83;;;;;;;;;;6480579;22;20415;-93
2022/05/20 05:34:08;;;;;;;50.53;45.47;;;;;;;;;;6501984;22;20050;-93
2022/05/20 05:36:39;;;;;;;48.65;44.25;;;;;;;;;;6499277;22;20045;-65
2022/05/20 05:39:09;;;;;;;48.08;43.40;;;;;;;;;;6521091;22;19991;-65
2022/05/20 05:41:40;;;;;;;49.20;44.20;;;;;;;;;;6519594;22;20082;-65
2022/05/20 05:44:10;;;;;;;51.08;45.75;;;;;;;;;;6519140;22;19999;-66
2022/05/20 05:46:40;;;;;;;50.88;46.15;;;;;;;;;;6519623;22;20053;-65
2022/05/20 05:49:11;;;;;;;44.70;39.67;;;;;;;;;;6519585;22;20065;-66
2022/05/20 05:51:41;;;;;;;47.88;43.22;;;;;;;;;;6519166;22;20090;-65
2022/05/20 05:54:11;;;;;;;52.58;47.22;;;;;;;;;;6519078;22;20456;-65
2022/05/20 05:56:42;;;;;;;51.42;46.10;;;;;;;;;;6518991;22;20078;-64
2022/05/20 05:59:12;;;;;;;48.00;43.45;;;;;;;;;;6519480;22;20456;-64
2022/05/20 06:01:43;;;;;;;42.83;38.58;;;;;;;;;;6518685;22;20027;-63
2022/05/20 06:04:13;;;;;;;47.53;42.45;;;;;;;;;;6518457;22;20066;-63
2022/05/20 06:06:49;;;;;;;47.97;43.28;;;;;;;;;;6518964;22;20003;-64
2022/05/20 06:09:20;;;;;;;48.70;43.95;;;;;;;;;;6519337;22;20093;-64
2022/05/20 06:11:51;;;;;;;51.33;46.17;;;;;;;;;;6518823;22;19995;-63
2022/05/20 06:14:21;;;;;;;43.47;39.33;;;;;;;;;;6520714;22;19999;-63
2022/05/20 06:16:51;;;;;;;48.85;44.08;;;;;;;;;;6519423;22;20021;-63
2022/05/20 06:19:22;;;;;;;47.15;43.03;;;;;;;;;;6518235;22;20315;-62
2022/05/20 06:21:52;;;;;;;47.60;42.63;;;;;;;;;;6519538;22;20007;-62
2022/05/20 06:24:23;;;;;;;49.25;44.22;;;;;;;;;;6517237;22;20259;-63
2022/05/20 06:26:54;;;;;;;46.17;39.95;;;;;;;;;;6518124;22;20425;-62
2022/05/20 06:29:24;;;;;;;43.55;39.38;;;;;;;;;;6517727;22;20002;-63
2022/05/20 06:31:54;;;;;;;43.55;39.53;;;;;;;;;;6518661;22;20003;-62
2022/05/20 06:34:25;;;;;;;42.92;38.88;;;;;;;;;;6520275;22;20481;-63
2022/05/20 06:39:50;;;;;;;40.37;36.33;;;;;;;;;;6522543;22;20460;-63
2022/05/20 06:42:20;;;;;;;41.33;37.35;;;;;;;;;;6520489;22;20022;-63
2022/05/20 06:44:51;;;;;;;37.50;34.10;;;;;;;;;;6520040;22;19995;-62
2022/05/20 06:47:21;;;;;;;37.85;34.08;;;;;;;;;;6520443;22;19995;-63
2022/05/20 06:49:52;;;;;;;38.22;34.45;;;;;;;;;;6520258;22;20118;-63
2022/05/20 06:52:22;;;;;;;35.85;32.47;;;;;;;;;;6520251;22;19995;-62
2022/05/20 06:54:52;;;;;;;37.15;34.00;;;;;;;;;;6521752;22;20065;-64
2022/05/20 06:57:24;;;;;;;37.15;33.22;;;;;;;;;;6520219;22;20027;-64
2022/05/20 06:59:55;;;;;;;33.13;30.33;;;;;;;;;;6520382;22;19996;-64
2022/05/20 07:02:25;;;;;;;35.65;32.33;;;;;;;;;;6520263;22;20014;-64
2022/05/20 07:04:57;;;;;;;35.13;32.00;;;;;;;;;;6521445;22;20038;-64
2022/05/20 07:07:27;;;;;;;35.55;31.98;;;;;;;;;;6520188;22;20007;-64
2022/05/20 07:09:57;;;;;;;35.78;32.47;;;;;;;;;;6520364;22;20686;-64
2022/05/20 07:12:28;;;;;;;32.33;29.33;;;;;;;;;;6520408;22;20078;-63
2022/05/20 07:15:00;;;;;;;34.38;31.23;;;;;;;;;;6519687;22;20080;-63
2022/05/20 07:17:31;;;;;;;30.30;27.77;;;;;;;;;;6520415;22;20408;-64
2022/05/20 07:20:02;;;;;;;32.90;29.80;;;;;;;;;;6520362;22;19999;-63
2022/05/20 07:22:32;;;;;;;27.38;24.58;;;;;;;;;;6520150;22;20069;-63
2022/05/20 07:25:02;;;;;;;27.50;24.90;;;;;;;;;;6519740;22;20075;-64
2022/05/20 07:27:33;;;;;;;26.88;24.30;;;;;;;;;;6520132;22;19995;-64
2022/05/20 07:30:04;;;;;;;23.85;21.50;;;;;;;;;;6520369;22;20003;-66
2022/05/20 07:32:34;;;;;;;26.25;23.45;;;;;;;;;;6521638;22;20315;-65
2022/05/20 07:35:04;;;;;;;28.60;24.70;;;;;;;;;;6521464;22;20333;-64
2022/05/20 07:37:35;;;;;;;27.73;24.58;;;;;;;;;;6519852;22;20342;-64
2022/05/20 07:40:06;;;;;;;23.50;21.10;;;;;;;;;;6517495;22;20384;-64
2022/05/20 07:42:36;;;;;;;24.33;22.20;;;;;;;;;;6521030;22;20007;-64
2022/05/20 07:45:06;;;;;;;25.27;23.38;;;;;;;;;;6521390;22;20452;-64
2022/05/20 07:47:37;;;;;;;24.65;22.10;;;;;;;;;;6523701;22;20002;-64
2022/05/20 07:50:07;;;;;;;22.17;20.33;;;;;;;;;;6522022;22;20025;-64
2022/05/20 07:55:30;;;;;;;15.68;14.10;;;;;;;;;;6523356;22;20055;-64
2022/05/20 07:58:02;;;;;;;23.00;20.92;;;;;;;;;;6521984;22;20003;-63
2022/05/20 08:00:33;;;;;;;17.15;15.52;;;;;;;;;;6519497;22;20341;-63
2022/05/20 08:03:03;;;;;;;18.35;16.73;;;;;;;;;;6520702;22;20003;-63
2022/05/20 08:05:35;;;;;;;25.73;18.35;;;;;;;;;;6520951;22;20003;-63
2022/05/20 08:08:06;;;;;;;18.20;16.67;;;;;;;;;;6521564;22;20066;-63
2022/05/20 08:10:38;;;;;;;18.58;17.00;;;;;;;;;;6521756;22;19999;-63
2022/05/20 08:13:09;;;;;;;19.05;17.38;;;;;;;;;;6521221;22;20488;-64
2022/05/20 08:15:39;;;;;;;17.20;15.77;;;;;;;;;;6521161;22;20030;-64
2022/05/20 08:18:09;;;;;;;18.98;15.25;;;;;;;;;;6521493;22;20003;-62
2022/05/20 08:20:40;;;;;;;15.52;13.90;;;;;;;;;;6521646;22;20003;-63
2022/05/20 08:23:10;;;;;;;17.65;15.18;;;;;;;;;;6521365;22;20387;-65
2022/05/20 08:25:40;;;;;;;15.52;14.07;;;;;;;;;;6520822;22;20006;-63
2022/05/20 08:28:11;;;;;;;16.80;15.30;;;;;;;;;;6521723;22;19999;-63
2022/05/20 08:30:41;;;;;;;15.32;13.77;;;;;;;;;;6521636;22;19999;-64
2022/05/20 08:33:11;;;;;;;16.40;13.85;;;;;;;;;;6521268;22;19995;-64
2022/05/20 08:35:41;;;;;;;15.82;14.25;;;;;;;;;;6520320;22;20026;-63
2022/05/20 08:38:12;;;;;;;13.77;12.50;;;;;;;;;;6521179;22;20035;-63
2022/05/20 08:40:44;;;;;;;18.58;15.25;;;;;;;;;;6521377;22;20521;-63
2022/05/20 08:43:14;;;;;;;12.65;11.65;;;;;;;;;;6521054;22;19995;-65
2022/05/20 08:45:44;;;;;;;14.07;13.07;;;;;;;;;;6520951;22;20003;-63
2022/05/20 08:48:16;;;;;;;13.45;11.93;;;;;;;;;;6523386;22;19999;-63
2022/05/20 08:50:46;;;;;;;12.60;11.68;;;;;;;;;;6520902;22;19998;-63
2022/05/20 08:53:35;;;;;;;15.18;13.13;;;;;;;;;;6521288;22;19999;-64
2022/05/20 08:56:07;;;;;;;14.40;13.20;;;;;;;;;;6521406;22;20009;-64
2022/05/20 08:58:41;;;;;;;13.48;12.20;;;;;;;;;;6521618;22;19995;-64
2022/05/20 09:01:11;;;;;;;12.57;11.50;;;;;;;;;;6521792;22;20010;-63
2022/05/20 09:03:42;;;;;;;12.88;11.77;;;;;;;;;;6520587;22;20007;-62
2022/05/20 09:06:15;;;;;;;13.75;12.32;;;;;;;;;;6521365;22;19996;-64
2022/05/20 09:09:00;;;;;;;10.32;9.43;;;;;;;;;;6521189;22;19991;-64
2022/05/20 09:11:30;;;;;;;12.40;9.50;;;;;;;;;;6520765;22;19995;-64
2022/05/20 09:17:07;;;;;;;11.35;10.55;;;;;;;;;;6522676;22;20056;-64
2022/05/20 09:19:38;;;;;;;14.80;12.02;;;;;;;;;;6522436;22;20006;-64
2022/05/20 09:22:14;;;;;;;13.02;10.32;;;;;;;;;;6520778;22;20003;-63
2022/05/20 09:24:45;;;;;;;14.55;12.13;;;;;;;;;;6520322;22;20451;-64
2022/05/20 09:27:25;;;;;;;15.80;11.48;;;;;;;;;;6521129;22;20030;-64
2022/05/20 09:30:09;;;;;;;12.43;11.32;;;;;;;;;;6521058;22;20053;-63
2022/05/20 09:32:43;;;;;;;22.63;13.55;;;;;;;;;;6520826;22;19995;-63
2022/05/20 09:35:19;;;;;;;14.45;12.98;;;;;;;;;;6520205;22;19999;-63
2022/05/20 09:37:50;;;;;;;15.18;13.25;;;;;;;;;;6520810;22;20011;-62
2022/05/20 09:40:24;;;;;;;18.15;13.57;;;;;;;;;;6520672;22;20406;-63
2022/05/20 09:42:58;;;;;;;17.75;13.30;;;;;;;;;;6520125;22;20003;-62
2022/05/20 09:45:34;;;;;;;18.88;14.00;;;;;;;;;;6520126;22;20452;-63
2022/05/20 09:48:05;;;;;;;18.17;13.48;;;;;;;;;;6520673;22;19991;-63
2022/05/20 09:50:38;;;;;;;15.95;14.63;;;;;;;;;;6520694;22;20006;-63
2022/05/20 09:53:23;;;;;;;14.95;13.60;;;;;;;;;;6520256;22;20333;-61
2022/05/20 09:56:11;;;;;;;14.50;13.05;;;;;;;;;;6520484;22;20000;-63
2022/05/20 09:58:41;;;;;;;14.32;13.10;;;;;;;;;;6521103;22;20009;-62
2022/05/20 10:01:15;;;;;;;16.73;15.10;;;;;;;;;;6520468;22;20426;-63
2022/05/20 10:03:48;;;;;;;16.35;14.68;;;;;;;;;;6519631;22;20065;-63
2022/05/20 10:06:23;;;;;;;15.55;14.05;;;;;;;;;;6520215;22;20003;-63
2022/05/20 10:09:06;;;;;;;17.65;15.80;;;;;;;;;;6520451;22;19992;-62
2022/05/20 10:11:54;;;;;;;17.27;15.73;;;;;;;;;;6520497;22;20284;-62
2022/05/20 10:14:27;;;;;;;17.92;16.50;;;;;;;;;;6520123;22;20426;-62
2022/05/20 10:16:59;;;;;;;17.90;16.02;;;;;;;;;;6520907;22;19999;-62
2022/05/20 10:19:50;;;;;;;22.52;20.58;;;;;;;;;;6525933;22;20000;-60
2022/05/20 10:22:26;;;;;;;20.90;18.38;;;;;;;;;;6528037;22;20082;-62
2022/05/20 10:24:57;;;;;;;22.98;18.33;;;;;;;;;;6528223;22;20392;-61
2022/05/20 10:27:38;;;;;;;21.40;17.38;;;;;;;;;;6528054;22;20003;-61
2022/05/20 10:33:07;;;;;;;;;;;;;;;;;;6522560;22;20026;-61
2022/05/20 10:35:53;;;;;;;18.65;16.80;;;;;;;;;;6519869;22;19900;-62
2022/05/20 10:38:26;;;;;;;19.95;18.05;;;;;;;;;;6520395;22;20031;-62
2022/05/20 10:41:00;;;;;;;20.02;18.13;;;;;;;;;;6520157;22;20006;-62
2022/05/20 10:49:53;;;;;;;19.00;17.40;;;;;;;;;;6521310;22;20073;-62
2022/05/20 10:52:48;;;;;;;22.65;20.15;;;;;;;;;;6477839;22;20002;-62
2022/05/20 10:55:38;;;;;;;18.17;16.58;;;;;;;;;;6519722;22;19996;-62
2022/05/20 10:58:17;;;;;;;22.05;19.70;;;;;;;;;;6520149;22;20082;-62
2022/05/20 11:00:48;;;;;;;;;;;;;;;;;;6520691;22;19995;-62
2022/05/20 11:03:27;;;;;;;21.02;19.17;;;;;;;;;;6496174;22;19999;-61
2022/05/20 11:06:10;;;;;;;21.17;17.88;;;;;;;;;;6489235;22;20421;-60
2022/05/20 11:08:40;;;;;;;20.42;18.50;;;;;;;;;;6461873;22;20003;-60
2022/05/20 11:11:19;;;;;;;18.55;16.60;;;;;;;;;;6462166;22;19996;-61
2022/05/20 11:13:50;;;;;;;22.83;20.45;;;;;;;;;;6461534;22;20216;-61
2022/05/20 11:16:29;;;;;;;20.00;17.88;;;;;;;;;;6461567;22;20058;-61
2022/05/20 11:19:18;;;;;;;18.95;17.30;;;;;;;;;;6463255;22;20348;-61
2022/05/20 11:21:55;;;;;;;21.42;19.35;;;;;;;;;;6463827;22;20033;-60
2022/05/20 11:24:43;;;;;;;19.67;18.08;;;;;;;;;;6463508;22;20428;-61
2022/05/20 11:27:26;;;;;;;20.70;18.83;;;;;;;;;;6463744;22;20056;-61
2022/05/20 11:29:57;;;;;;;23.80;19.73;;;;;;;;;;6464413;22;20369;-62
2022/05/20 11:32:43;;;;;;;33.83;23.23;;;;;;;;;;6467642;22;19995;-61
2022/05/20 11:35:28;;;;;;;23.50;21.00;;;;;;;;;;6469413;22;19995;-61
2022/05/20 11:38:02;;;;;;;28.65;23.40;;;;;;;;;;6473272;22;19999;-62
2022/05/20 11:40:35;;;;;;;31.75;26.75;;;;;;;;;;6472308;22;20007;-61
2022/05/20 11:43:06;;;;;;;39.75;32.70;;;;;;;;;;6467999;22;19996;-62
2022/05/20 11:45:43;;;;;;;32.90;29.40;;;;;;;;;;6468581;22;20042;-61
2022/05/20 11:48:25;;;;;;;31.05;28.35;;;;;;;;;;6473447;22;20000;-61
2022/05/20 11:50:56;;;;;;;34.65;29.25;;;;;;;;;;6473093;22;20315;-61
2022/05/20 11:53:35;;;;;;;38.75;32.33;;;;;;;;;;6472159;22;20077;-60
2022/05/20 11:56:10;;;;;;;39.60;34.10;;;;;;;;;;6474569;22;20437;-61
2022/05/20 11:58:48;;;;;;;38.67;35.15;;;;;;;;;;6476184;22;20014;-59
2022/05/20 12:01:18;;;;;;;40.10;36.65;;;;;;;;;;6476588;22;20327;-61
2022/05/20 12:04:07;;;;;;;35.08;31.65;;;;;;;;;;6474357;22;20097;-60
2022/05/20 12:06:44;;;;;;;35.20;31.50;;;;;;;;;;6472280;22;20015;-61
2022/05/20 12:09:33;;;;;;;38.03;33.80;;;;;;;;;;6472716;22;19996;-61
2022/05/20 12:12:06;;;;;;;34.03;30.75;;;;;;;;;;6471140;22;20025;-61
2022/05/20 12:14:55;;;;;;;36.15;32.80;;;;;;;;;;6472746;22;20000;-59
2022/05/20 12:17:45;;;;;;;40.03;35.80;;;;;;;;;;6473348;22;20000;-59
2022/05/20 12:26:20;;;;;;;33.92;30.40;;;;;;;;;;6498320;22;20030;-62
2022/05/20 12:28:51;;;;;;;29.48;26.70;;;;;;;;;;6469863;22;19996;-64
2022/05/20 12:31:23;;;;;;;30.48;27.42;;;;;;;;;;6469816;22;20011;-64
2022/05/20 12:33:56;;;;;;;27.27;24.65;;;;;;;;;;6466861;22;20145;-61
2022/05/20 12:36:29;;;;;;;30.70;27.58;;;;;;;;;;6470183;22;20000;-61
2022/05/20 12:39:09;;;;;;;24.02;21.55;;;;;;;;;;6471129;22;20011;-62
2022/05/20 12:41:59;;;;;;;22.65;20.27;;;;;;;;;;6468789;22;20319;-62
2022/05/20 12:44:32;;;;;;;26.67;21.73;;;;;;;;;;6466898;22;20281;-62
2022/05/20 12:47:08;;;;;;;21.67;19.38;;;;;;;;;;6497834;22;20334;-63
2022/05/20 12:49:42;;;;;;;20.55;17.70;;;;;;;;;;6469821;22;20062;-62
2022/05/20 12:52:15;;;;;;;18.13;16.63;;;;;;;;;;6469464;22;19996;-65
2022/05/20 12:54:47;;;;;;;16.55;14.57;;;;;;;;;;6497031;22;20008;-61
2022/05/20 12:57:28;;;;;;;13.57;12.43;;;;;;;;;;6470486;22;20078;-62
2022/05/20 13:00:02;;;;;;;17.85;16.23;;;;;;;;;;6469015;22;20027;-62
2022/05/20 13:02:36;;;;;;;16.77;15.48;;;;;;;;;;6469349;22;20038;-62
2022/05/20 13:05:25;;;;;;;16.60;15.02;;;;;;;;;;6491879;22;19999;-61
2022/05/20 13:07:55;;;;;;;14.25;12.95;;;;;;;;;;6468319;22;20003;-62
2022/05/20 13:10:29;;;;;;;10.35;9.45;;;;;;;;;;6468786;22;20097;-62
2022/05/20 13:13:01;;;;;;;7.18;6.55;;;;;;;;;;6469724;22;20058;-61
2022/05/20 13:15:38;;;;;;;7.25;6.60;;;;;;;;;;6469856;22;19996;-63
2022/05/20 13:18:13;;;;;;;6.20;5.60;;;;;;;;;;6469959;22;20014;-62
2022/05/20 13:20:43;;;;;;;4.32;4.03;;;;;;;;;;6464592;22;20074;-61
2022/05/20 13:23:21;;;;;;;5.18;4.88;;;;;;;;;;6464501;22;20032;-59
2022/05/20 13:25:51;;;;;;;3.70;3.40;;;;;;;;;;6467114;22;20008;-61
2022/05/20 13:28:26;;;;;;;7.10;5.03;;;;;;;;;;6468214;22;19999;-61
2022/05/20 13:31:00;;;;;;;3.28;3.17;;;;;;;;;;6464023;22;19991;-64
2022/05/20 13:33:32;;;;;;;3.00;2.80;;;;;;;;;;6463750;22;19996;-64
2022/05/20 13:36:04;;;;;;;3.80;3.20;;;;;;;;;;6463596;22;20078;-64
2022/05/20 13:38:39;;;;;;;2.53;2.42;;;;;;;;;;6464795;22;20100;-64
2022/05/20 13:41:10;;;;;;;3.25;3.05;;;;;;;;;;6464399;22;20014;-65
2022/05/20 13:43:40;;;;;;;2.78;2.67;;;;;;;;;;6463846;22;20007;-64
2022/05/20 13:49:12;;;;;;;;;;;;;;;;;;6491264;22;20014;-64
2022/05/20 13:51:52;;;;;;;2.72;2.63;;;;;;;;;;6463122;22;19906;-64
2022/05/20 13:54:22;;;;;;;;;;;;;;;;;;6463605;22;19995;-64
2022/05/20 13:56:53;;;;;;;3.10;2.90;;;;;;;;;;6463960;22;19969;-63
2022/05/20 13:59:23;;;;;;;3.25;2.13;;;;;;;;;;6462587;22;19999;-64
2022/05/20 14:02:14;;;;;;;3.78;3.47;;;;;;;;;;6463467;22;20004;-64
2022/05/20 14:04:50;;;;;;;3.67;3.47;;;;;;;;;;6462015;22;20007;-64
2022/05/20 14:07:24;;;;;;;7.90;3.83;;;;;;;;;;6491100;22;19995;-65
2022/05/20 14:09:56;;;;;;;3.08;2.97;;;;;;;;;;6463566;22;20031;-64
2022/05/20 14:12:29;;;;;;;3.58;3.38;;;;;;;;;;6489005;22;20070;-65
2022/05/20 14:15:01;;;;;;;4.85;4.65;;;;;;;;;;6463973;22;20086;-62
2022/05/20 14:17:31;;;;;;;4.47;4.28;;;;;;;;;;6465925;22;20008;-62
2022/05/20 14:20:08;;;;;;;4.45;3.97;;;;;;;;;;6465914;22;19999;-64
2022/05/20 14:22:40;;;;;;;17.20;15.90;;;;;;;;;;6464996;22;20011;-63
2022/05/20 14:28:14;;;;;;;13.60;12.38;;;;;;;;;;6439586;22;20075;-67
2022/05/20 14:30:55;;;;;;;12.23;11.23;;;;;;;;;;6463276;22;19996;-65
2022/05/20 14:33:36;;;;;;;9.55;8.90;;;;;;;;;;6462909;22;20018;-64
2022/05/20 14:36:09;;;;;;;6.72;6.32;;;;;;;;;;6463395;22;20034;-64
2022/05/20 14:38:45;;;;;;;6.13;5.63;;;;;;;;;;6491051;22;20054;-64
2022/05/20 14:41:24;;;;;;;4.30;4.10;;;;;;;;;;6463174;22;20004;-64
2022/05/20 14:44:00;;;;;;;5.50;5.10;;;;;;;;;;6489494;22;20006;-63
2022/05/20 14:49:30;;;;;;;4.40;4.20;;;;;;;;;;6490281;22;20014;-63
2022/05/20 14:52:01;;;;;;;13.65;4.63;;;;;;;;;;6462602;22;20000;-64
2022/05/20 14:54:36;;;;;;;3.45;3.35;;;;;;;;;;6463896;22;20027;-62
2022/05/20 14:57:28;;;;;;;5.85;5.35;;;;;;;;;;6464609;22;20000;-63
2022/05/20 15:00:10;;;;;;;4.47;4.18;;;;;;;;;;6465046;22;19996;-64
2022/05/20 15:02:41;;;;;;;4.63;3.20;;;;;;;;;;6491447;22;20006;-63
2022/05/20 15:05:11;;;;;;;2.90;2.65;;;;;;;;;;6464945;22;20004;-64
2022/05/20 15:07:43;;;;;;;6.35;3.10;;;;;;;;;;6464935;22;19999;-64
2022/05/20 15:10:18;;;;;;;3.25;3.05;;;;;;;;;;6465321;22;20071;-64
2022/05/20 15:12:48;;;;;;;4.82;4.43;;;;;;;;;;6464883;22;19996;-65
2022/05/20 15:15:19;;;;;;;4.63;4.05;;;;;;;;;;6464427;22;20144;-63
2022/05/20 15:18:09;;;;;;;7.97;4.25;;;;;;;;;;6464709;22;20031;-65
2022/05/20 15:20:50;;;;;;;5.50;5.05;;;;;;;;;;6465005;22;20339;-63
2022/05/20 15:23:23;;;;;;;5.88;3.45;;;;;;;;;;6464705;22;20019;-65
2022/05/20 15:25:53;;;;;;;2.25;2.15;;;;;;;;;;6491780;22;20023;-64
2022/05/20 15:37:00;;;;;;;4.15;2.70;;;;;;;;;;6461352;23;20069;-63
2022/05/20 15:39:32;;;;;;;2.10;1.90;;;;;;;;;;6436674;23;20004;-63
2022/05/20 15:42:02;;;;;;;3.90;2.25;;;;;;;;;;6433450;23;20004;-63
2022/05/20 15:44:32;;;;;;;4.95;3.33;;;;;;;;;;6435885;23;20035;-63
2022/05/20 15:47:03;;;;;;;7.03;2.95;;;;;;;;;;6463548;23;19996;-65
2022/05/20 15:49:33;;;;;;;1.70;1.70;;;;;;;;;;6436452;23;20000;-65
2022/05/20 15:52:04;;;;;;;8.90;2.88;;;;;;;;;;6463483;23;19996;-62
2022/05/20 15:54:36;;;;;;;2.08;1.98;;;;;;;;;;6434597;23;20004;-61
2022/05/20 15:57:08;;;;;;;2.30;2.20;;;;;;;;;;6434425;23;20158;-64